Time;durP1;ratioP1;P1;durP2;ratioP2;P2;SDS_P1;SDS_P2;PMS_P1;PMS_P2;Temp;Humidity;BMP_temperature;BMP_pressure;BME280_temperature;BME280_humidity;BME280_pressure;Samples;Min_cycle;Max_cycle;Signal;HPM_P1;HPM_P2
2022/11/25 00:01:10;;;;;;;31.63;11.65;;;;;;;;;;6228914;23;20004;-78
2022/11/25 00:03:39;;;;;;;21.58;9.05;;;;;;;;;;6243210;23;19981;-79
2022/11/25 00:06:24;;;;;;;18.25;9.77;;;;;;;;;;6231063;23;20001;-78
2022/11/25 00:09:07;;;;;;;;;;;;;;;;;;;;;
2022/11/25 00:12:02;;;;;;;19.13;7.65;;;;;;;;;;6185701;23;20081;-78
2022/11/25 00:26:36;;;;;;;23.80;10.80;;;;;;;;;;6122012;23;20021;-78
2022/11/25 00:29:03;;;;;;;22.33;10.45;;;;;;;;;;6122135;23;20053;-79
2022/11/25 00:31:48;;;;;;;15.80;7.32;;;;;;;;;;6126153;23;20256;-78
2022/11/25 00:34:20;;;;;;;15.45;7.25;;;;;;;;;;6155654;23;20020;-80
2022/11/25 00:36:46;;;;;;;16.85;7.70;;;;;;;;;;6153401;23;20006;-78
2022/11/25 00:39:14;;;;;;;16.38;7.68;;;;;;;;;;6154997;23;20025;-78
2022/11/25 00:44:35;;;;;;;13.07;7.03;;;;;;;;;;6155443;23;20362;-78
2022/11/25 00:47:04;;;;;;;17.52;7.85;;;;;;;;;;6153163;23;20370;-78
2022/11/25 00:49:30;;;;;;;15.80;9.02;;;;;;;;;;6154013;23;20117;-77
2022/11/25 00:51:56;;;;;;;21.80;11.57;;;;;;;;;;6155599;23;20001;-77
2022/11/25 00:54:22;;;;;;;23.23;12.93;;;;;;;;;;6155829;23;20048;-77
2022/11/25 00:56:48;;;;;;;19.55;11.98;;;;;;;;;;6155554;23;20426;-78
2022/11/25 00:59:14;;;;;;;21.05;12.27;;;;;;;;;;6155015;23;20008;-78
2022/11/25 01:01:43;;;;;;;18.92;10.75;;;;;;;;;;6155771;23;20005;-78
2022/11/25 01:04:09;;;;;;;21.50;12.00;;;;;;;;;;6155208;23;20005;-78
2022/11/25 01:06:36;;;;;;;24.90;13.82;;;;;;;;;;6164814;23;20016;-77
2022/11/25 01:09:02;;;;;;;21.35;12.00;;;;;;;;;;6158460;23;20071;-78
2022/11/25 01:11:28;;;;;;;20.88;12.18;;;;;;;;;;6158841;23;20001;-79
2022/11/25 01:13:55;;;;;;;30.33;15.15;;;;;;;;;;6159017;23;20084;-80
2022/11/25 01:16:21;;;;;;;29.70;14.57;;;;;;;;;;6158244;23;20008;-77
2022/11/25 01:18:49;;;;;;;22.27;13.13;;;;;;;;;;6158881;23;20189;-78
2022/11/25 01:21:25;;;;;;;27.55;14.73;;;;;;;;;;6158800;23;20005;-77
2022/11/25 01:23:51;;;;;;;25.02;13.30;;;;;;;;;;6158874;23;20032;-78
2022/11/25 01:26:19;;;;;;;29.75;16.38;;;;;;;;;;6158419;23;20005;-78
2022/11/25 01:28:46;;;;;;;31.30;17.30;;;;;;;;;;6184657;23;20076;-78
2022/11/25 01:31:13;;;;;;;30.92;17.17;;;;;;;;;;6185080;23;20043;-78
2022/11/25 01:33:42;;;;;;;28.73;15.43;;;;;;;;;;6184688;23;20005;-78
2022/11/25 01:36:10;;;;;;;31.73;17.38;;;;;;;;;;6158175;23;20008;-78
2022/11/25 01:38:48;;;;;;;32.00;16.67;;;;;;;;;;6158209;23;20493;-79
2022/11/25 01:41:17;;;;;;;36.22;16.80;;;;;;;;;;6158133;23;20008;-78
2022/11/25 01:43:43;;;;;;;29.75;15.90;;;;;;;;;;6157898;23;20008;-78
2022/11/25 01:46:25;;;;;;;30.38;15.15;;;;;;;;;;6158211;23;20009;-78
2022/11/25 01:49:03;;;;;;;28.20;15.63;;;;;;;;;;6158168;23;20009;-78
2022/11/25 01:51:56;;;;;;;26.83;15.75;;;;;;;;;;6157409;23;20005;-79
2022/11/25 01:54:23;;;;;;;30.80;15.00;;;;;;;;;;6150299;23;20007;-79
2022/11/25 01:56:52;;;;;;;23.40;13.85;;;;;;;;;;6157670;23;20013;-77
2022/11/25 01:59:18;;;;;;;26.58;14.15;;;;;;;;;;6184127;23;20005;-78
2022/11/25 02:01:47;;;;;;;29.38;15.73;;;;;;;;;;6158256;23;20433;-77
2022/11/25 02:04:16;;;;;;;23.00;13.90;;;;;;;;;;6158290;23;20001;-77
2022/11/25 02:06:53;;;;;;;25.33;14.13;;;;;;;;;;6152804;23;20026;-78
2022/11/25 02:09:21;;;;;;;25.40;13.80;;;;;;;;;;6153229;23;20064;-79
2022/11/25 02:11:48;;;;;;;22.95;12.90;;;;;;;;;;6153258;23;20008;-77
2022/11/25 02:14:15;;;;;;;25.38;13.85;;;;;;;;;;6153326;23;20426;-77
2022/11/25 02:16:41;;;;;;;28.48;13.23;;;;;;;;;;6153180;23;20008;-77
2022/11/25 02:19:11;;;;;;;23.10;12.55;;;;;;;;;;6153160;23;20006;-78
2022/11/25 02:21:43;;;;;;;23.08;11.95;;;;;;;;;;6154652;23;20020;-78
2022/11/25 02:24:20;;;;;;;21.90;11.93;;;;;;;;;;6152928;23;20006;-78
2022/11/25 02:26:46;;;;;;;24.23;12.27;;;;;;;;;;6154446;23;20035;-81
2022/11/25 02:29:18;;;;;;;19.30;10.75;;;;;;;;;;6152636;23;20005;-80
2022/11/25 02:31:52;;;;;;;16.23;9.85;;;;;;;;;;6155122;23;20005;-80
2022/11/25 02:34:20;;;;;;;17.50;9.02;;;;;;;;;;6153198;23;20055;-78
2022/11/25 02:37:16;;;;;;;16.00;9.18;;;;;;;;;;6152913;23;20002;-78
2022/11/25 02:39:48;;;;;;;17.80;8.93;;;;;;;;;;6152681;23;20353;-78
2022/11/25 02:42:15;;;;;;;14.27;8.43;;;;;;;;;;6152831;23;20040;-78
2022/11/25 02:44:53;;;;;;;11.73;7.50;;;;;;;;;;6152342;23;20005;-78
2022/11/25 02:47:37;;;;;;;16.67;8.23;;;;;;;;;;6153779;23;20031;-78
2022/11/25 02:50:09;;;;;;;19.77;8.50;;;;;;;;;;6152797;23;20002;-77
2022/11/25 02:52:35;;;;;;;13.00;7.53;;;;;;;;;;6153840;23;20442;-79
2022/11/25 02:55:01;;;;;;;18.30;8.35;;;;;;;;;;6154562;23;20008;-78
2022/11/25 02:57:27;;;;;;;14.65;7.93;;;;;;;;;;6152579;23;20009;-77
2022/11/25 02:59:53;;;;;;;16.15;7.35;;;;;;;;;;6154616;23;20317;-78
2022/11/25 03:02:22;;;;;;;12.57;7.15;;;;;;;;;;6154620;23;20616;-78
2022/11/25 03:04:58;;;;;;;19.42;9.13;;;;;;;;;;6153082;23;20001;-78
2022/11/25 03:07:35;;;;;;;13.93;8.32;;;;;;;;;;6173489;23;20024;-77
2022/11/25 03:10:04;;;;;;;14.63;7.03;;;;;;;;;;6184299;23;20377;-77
2022/11/25 03:12:32;;;;;;;18.23;7.20;;;;;;;;;;6157621;23;20114;-77
2022/11/25 03:15:04;;;;;;;20.33;9.35;;;;;;;;;;6185334;23;20076;-80
2022/11/25 03:17:50;;;;;;;14.75;8.73;;;;;;;;;;6163713;23;20012;-78
2022/11/25 03:20:17;;;;;;;21.52;10.05;;;;;;;;;;6186910;23;20346;-80
2022/11/25 03:23:00;;;;;;;14.77;7.53;;;;;;;;;;6162114;23;20005;-79
2022/11/25 03:25:29;;;;;;;13.00;7.47;;;;;;;;;;6164425;23;20009;-77
2022/11/25 03:28:05;;;;;;;26.38;13.25;;;;;;;;;;6157607;23;20394;-79
2022/11/25 03:30:31;;;;;;;12.60;6.63;;;;;;;;;;6158800;23;20001;-79
2022/11/25 03:32:57;;;;;;;31.73;13.40;;;;;;;;;;6157791;23;20032;-81
2022/11/25 03:35:23;;;;;;;13.60;6.57;;;;;;;;;;6183906;23;19997;-78
2022/11/25 03:37:55;;;;;;;10.48;4.63;;;;;;;;;;6182832;23;20110;-79
2022/11/25 03:40:21;;;;;;;13.45;4.57;;;;;;;;;;6184049;23;20116;-78
2022/11/25 03:42:47;;;;;;;32.85;15.27;;;;;;;;;;6157304;23;20001;-78
2022/11/25 03:45:17;;;;;;;9.75;4.28;;;;;;;;;;6156526;23;20028;-79
2022/11/25 03:47:43;;;;;;;8.00;4.43;;;;;;;;;;6155460;23;20113;-78
2022/11/25 03:50:36;;;;;;;9.18;4.72;;;;;;;;;;6156785;23;20092;-79
2022/11/25 03:53:02;;;;;;;7.72;3.90;;;;;;;;;;6156935;23;19997;-79
2022/11/25 03:55:30;;;;;;;8.35;4.43;;;;;;;;;;6183266;23;20004;-78
2022/11/25 03:57:56;;;;;;;8.32;5.30;;;;;;;;;;6174224;23;20005;-79
2022/11/25 04:00:25;;;;;;;16.77;8.73;;;;;;;;;;6156765;23;20068;-78
2022/11/25 04:02:53;;;;;;;17.73;9.35;;;;;;;;;;6157292;23;20005;-78
2022/11/25 04:05:22;;;;;;;13.85;9.90;;;;;;;;;;6158250;23;20039;-77
2022/11/25 04:07:50;;;;;;;16.38;9.27;;;;;;;;;;6152373;23;20071;-77
2022/11/25 04:10:16;;;;;;;14.98;7.78;;;;;;;;;;6153728;23;20013;-78
2022/11/25 04:12:48;;;;;;;15.55;8.02;;;;;;;;;;6155541;23;20001;-78
2022/11/25 04:15:21;;;;;;;11.57;6.55;;;;;;;;;;6153801;23;20319;-81
2022/11/25 04:17:52;;;;;;;17.38;6.53;;;;;;;;;;6153936;23;20009;-77
2022/11/25 04:20:26;;;;;;;;;;;;;;;;;;6155986;23;20001;-77
2022/11/25 04:23:05;;;;;;;14.73;6.32;;;;;;;;;;6156688;23;20222;-77
2022/11/25 04:25:41;;;;;;;15.25;8.18;;;;;;;;;;6155527;23;20097;-79
2022/11/25 04:28:10;;;;;;;13.65;7.30;;;;;;;;;;6152999;23;20006;-77
2022/11/25 04:30:39;;;;;;;11.45;6.35;;;;;;;;;;6155277;23;19997;-77
2022/11/25 04:33:12;;;;;;;11.05;5.35;;;;;;;;;;6155277;23;20007;-78
2022/11/25 04:38:12;;;;;;;13.02;7.15;;;;;;;;;;6235209;22;20020;-78
2022/11/25 04:40:49;;;;;;;10.13;5.32;;;;;;;;;;6247133;23;20086;-76
2022/11/25 04:43:18;;;;;;;13.05;6.30;;;;;;;;;;6244322;23;20008;-78
2022/11/25 04:45:45;;;;;;;15.00;8.65;;;;;;;;;;6244784;23;20004;-79
2022/11/25 04:48:16;;;;;;;19.48;11.30;;;;;;;;;;6217698;23;20012;-80
2022/11/25 04:50:45;;;;;;;17.52;11.00;;;;;;;;;;6218694;23;20004;-78
2022/11/25 04:53:16;;;;;;;18.08;9.07;;;;;;;;;;6218407;23;20442;-79
2022/11/25 04:55:42;;;;;;;;;;;;;;;;;;6218920;23;20007;-78
2022/11/25 04:58:09;;;;;;;18.40;10.18;;;;;;;;;;6243852;23;19900;-80
2022/11/25 05:00:38;;;;;;;18.13;10.07;;;;;;;;;;6218031;23;20015;-78
2022/11/25 05:03:07;;;;;;;21.35;11.13;;;;;;;;;;6218177;23;20008;-80
2022/11/25 05:05:44;;;;;;;18.48;10.30;;;;;;;;;;6218651;23;20008;-77
2022/11/25 05:08:14;;;;;;;17.75;11.43;;;;;;;;;;6218140;23;20090;-78
2022/11/25 05:10:44;;;;;;;19.73;11.75;;;;;;;;;;6217069;23;20447;-79
2022/11/25 05:13:10;;;;;;;16.83;10.57;;;;;;;;;;6216336;23;20391;-78
2022/11/25 05:15:39;;;;;;;19.05;12.45;;;;;;;;;;6244491;23;20431;-78
2022/11/25 05:18:08;;;;;;;22.13;11.80;;;;;;;;;;6219966;23;20451;-77
2022/11/25 05:20:37;;;;;;;20.40;11.57;;;;;;;;;;6218782;23;20445;-77
2022/11/25 05:23:11;;;;;;;21.05;10.35;;;;;;;;;;6219004;23;20004;-78
2022/11/25 05:25:37;;;;;;;19.25;10.23;;;;;;;;;;6244495;23;20004;-81
2022/11/25 05:28:06;;;;;;;21.50;11.63;;;;;;;;;;6217067;23;20005;-82
2022/11/25 05:30:44;;;;;;;;;;;;;;;;;;;;;
2022/11/25 05:33:13;;;;;;;20.05;9.13;;;;;;;;;;6241950;23;20079;-78
2022/11/25 05:35:42;;;;;;;18.00;8.40;;;;;;;;;;6244620;23;20014;-78
2022/11/25 05:38:10;;;;;;;19.55;10.20;;;;;;;;;;6212489;23;20013;-78
2022/11/25 05:40:41;;;;;;;19.48;8.48;;;;;;;;;;6213189;23;20012;-77
2022/11/25 05:43:07;;;;;;;18.52;8.77;;;;;;;;;;6212535;23;20001;-77
2022/11/25 05:45:36;;;;;;;24.50;8.52;;;;;;;;;;6212804;23;20004;-76
2022/11/25 05:48:04;;;;;;;20.95;9.52;;;;;;;;;;6213878;23;20075;-79
2022/11/25 05:50:30;;;;;;;15.98;8.65;;;;;;;;;;6212813;23;20094;-77
2022/11/25 05:52:59;;;;;;;23.48;8.52;;;;;;;;;;6214482;23;20000;-78
2022/11/25 05:55:25;;;;;;;19.90;8.75;;;;;;;;;;6213047;23;20011;-78
2022/11/25 05:57:53;;;;;;;17.40;8.15;;;;;;;;;;6214246;23;20001;-77
2022/11/25 06:00:20;;;;;;;17.30;8.30;;;;;;;;;;6214484;23;20070;-77
2022/11/25 06:02:49;;;;;;;19.48;8.50;;;;;;;;;;6214299;23;20001;-77
2022/11/25 06:05:15;;;;;;;21.92;8.70;;;;;;;;;;6214392;23;20015;-77
2022/11/25 06:07:42;;;;;;;16.75;8.90;;;;;;;;;;6213547;23;20011;-77
2022/11/25 06:10:08;;;;;;;20.40;9.70;;;;;;;;;;6214505;23;20385;-77
2022/11/25 06:12:42;;;;;;;27.35;12.65;;;;;;;;;;6214640;23;20011;-76
2022/11/25 06:15:17;;;;;;;39.38;13.80;;;;;;;;;;6214239;23;20066;-78
2022/11/25 06:17:48;;;;;;;33.80;12.55;;;;;;;;;;6211884;23;20076;-80
2022/11/25 06:20:26;;;;;;;31.05;12.38;;;;;;;;;;6214227;23;20088;-77
2022/11/25 06:22:53;;;;;;;35.15;13.93;;;;;;;;;;6212179;23;20005;-76
2022/11/25 06:25:24;;;;;;;30.77;12.65;;;;;;;;;;6213639;23;20322;-78
2022/11/25 06:28:01;;;;;;;27.23;11.93;;;;;;;;;;6213953;23;20004;-78
2022/11/25 06:30:30;;;;;;;26.75;13.82;;;;;;;;;;6213205;23;19993;-78
2022/11/25 06:32:59;;;;;;;27.95;12.38;;;;;;;;;;6212617;23;20004;-80
2022/11/25 06:35:28;;;;;;;28.60;12.73;;;;;;;;;;6212752;23;20007;-78
2022/11/25 06:37:57;;;;;;;24.00;12.15;;;;;;;;;;6216158;23;20004;-78
2022/11/25 06:40:23;;;;;;;24.65;11.73;;;;;;;;;;6217935;23;20008;-78
2022/11/25 06:43:03;;;;;;;27.67;12.85;;;;;;;;;;6217469;23;20341;-77
2022/11/25 06:45:41;;;;;;;25.88;12.43;;;;;;;;;;6244615;23;20004;-77
2022/11/25 06:48:10;;;;;;;25.65;11.13;;;;;;;;;;6216751;23;20070;-78
2022/11/25 06:50:45;;;;;;;27.60;11.90;;;;;;;;;;6218320;23;20004;-78
2022/11/25 06:53:33;;;;;;;19.55;11.30;;;;;;;;;;6217052;23;20004;-78
2022/11/25 06:56:06;;;;;;;21.02;11.02;;;;;;;;;;6217287;23;20004;-77
2022/11/25 06:58:40;;;;;;;21.67;12.13;;;;;;;;;;6244235;23;20027;-76
2022/11/25 07:01:40;;;;;;;25.80;13.43;;;;;;;;;;6215382;23;20000;-76
2022/11/25 07:07:38;;;;;;;20.85;13.50;;;;;;;;;;6118814;23;20028;-76
2022/11/25 07:10:13;;;;;;;26.65;13.93;;;;;;;;;;6212974;23;20012;-76
2022/11/25 07:12:39;;;;;;;20.48;11.77;;;;;;;;;;6242418;23;20061;-76
2022/11/25 07:15:08;;;;;;;25.90;12.70;;;;;;;;;;6216491;23;20015;-77
2022/11/25 07:17:39;;;;;;;22.58;11.07;;;;;;;;;;6216284;23;20004;-77
2022/11/25 07:20:09;;;;;;;23.27;12.52;;;;;;;;;;6216448;23;19996;-77
2022/11/25 07:22:44;;;;;;;27.67;14.75;;;;;;;;;;6216209;23;20382;-76
2022/11/25 07:27:59;;;;;;;31.88;15.73;;;;;;;;;;6225289;23;20016;-76
2022/11/25 07:30:26;;;;;;;22.77;12.75;;;;;;;;;;6214703;23;20253;-75
2022/11/25 07:32:52;;;;;;;27.02;12.35;;;;;;;;;;6215671;23;20141;-76
2022/11/25 07:35:18;;;;;;;23.80;11.20;;;;;;;;;;6215876;23;20024;-78
2022/11/25 07:37:52;;;;;;;16.63;9.43;;;;;;;;;;6216022;23;20467;-76
2022/11/25 07:40:18;;;;;;;16.30;7.90;;;;;;;;;;6218492;23;20035;-77
2022/11/25 07:42:44;;;;;;;12.63;6.10;;;;;;;;;;6218962;23;20428;-77
2022/11/25 07:45:13;;;;;;;17.58;6.75;;;;;;;;;;6245748;23;19996;-77
2022/11/25 07:47:42;;;;;;;15.30;7.03;;;;;;;;;;6216829;23;20510;-76
2022/11/25 07:50:08;;;;;;;10.25;6.75;;;;;;;;;;6219158;23;19996;-75
2022/11/25 07:52:39;;;;;;;12.93;6.25;;;;;;;;;;6218715;23;20163;-76
2022/11/25 07:55:11;;;;;;;17.38;6.40;;;;;;;;;;6218260;23;20004;-76
2022/11/25 07:57:37;;;;;;;12.75;6.50;;;;;;;;;;6217467;23;20095;-74
2022/11/25 08:00:04;;;;;;;9.88;5.93;;;;;;;;;;6218733;23;20000;-77
2022/11/25 08:02:33;;;;;;;11.43;5.93;;;;;;;;;;6218594;23;20432;-77
2022/11/25 08:05:20;;;;;;;13.65;6.25;;;;;;;;;;6218559;23;20340;-76
2022/11/25 08:07:56;;;;;;;15.05;6.15;;;;;;;;;;6243590;23;20340;-76
2022/11/25 08:10:22;;;;;;;10.60;6.10;;;;;;;;;;6245818;23;20006;-77
2022/11/25 08:12:53;;;;;;;12.38;5.68;;;;;;;;;;6218481;23;20024;-77
2022/11/25 08:15:19;;;;;;;11.38;5.55;;;;;;;;;;6218329;23;20032;-75
2022/11/25 08:17:51;;;;;;;9.80;5.20;;;;;;;;;;6217268;23;20015;-77
2022/11/25 08:20:17;;;;;;;12.93;5.70;;;;;;;;;;6244063;23;20004;-77
2022/11/25 08:22:43;;;;;;;11.65;4.93;;;;;;;;;;6218596;23;20004;-76
2022/11/25 08:25:10;;;;;;;9.38;5.50;;;;;;;;;;6218187;23;20004;-77
2022/11/25 08:27:40;;;;;;;11.65;5.25;;;;;;;;;;6217299;23;20004;-79
2022/11/25 08:30:06;;;;;;;14.27;6.45;;;;;;;;;;6217053;23;20313;-76
2022/11/25 08:32:42;;;;;;;12.90;6.57;;;;;;;;;;6218437;23;20092;-79
2022/11/25 08:35:08;;;;;;;10.82;5.57;;;;;;;;;;6218308;23;20000;-75
2022/11/25 08:37:34;;;;;;;12.65;6.55;;;;;;;;;;6244026;23;20004;-77
2022/11/25 08:40:23;;;;;;;12.18;7.65;;;;;;;;;;6244459;23;20008;-77
2022/11/25 08:43:06;;;;;;;11.25;6.60;;;;;;;;;;6244720;23;20030;-77
2022/11/25 08:45:33;;;;;;;13.90;7.25;;;;;;;;;;6217800;23;20042;-76
2022/11/25 08:48:02;;;;;;;11.13;6.80;;;;;;;;;;6217153;23;20008;-76
2022/11/25 08:50:31;;;;;;;11.13;7.68;;;;;;;;;;6217413;23;20004;-76
2022/11/25 08:53:19;;;;;;;;;;;;;;;;;;;;;
2022/11/25 08:56:25;;;;;;;;;;;;;;;;;;;;;
2022/11/25 08:58:54;;;;;;;12.48;7.88;;;;;;;;;;6186671;23;20071;-77
2022/11/25 09:01:26;;;;;;;11.77;6.57;;;;;;;;;;6216892;23;19996;-76
2022/11/25 09:04:09;;;;;;;8.73;6.05;;;;;;;;;;6217953;23;20376;-77
2022/11/25 09:06:38;;;;;;;11.95;6.57;;;;;;;;;;6218220;23;20405;-76
2022/11/25 09:09:04;;;;;;;11.35;6.40;;;;;;;;;;6245630;23;20004;-77
2022/11/25 09:11:31;;;;;;;9.88;6.88;;;;;;;;;;6245215;23;20004;-77
2022/11/25 09:14:05;;;;;;;16.95;8.07;;;;;;;;;;6245497;23;20004;-77
2022/11/25 09:16:45;;;;;;;16.42;8.30;;;;;;;;;;6242004;23;20012;-77
2022/11/25 09:19:14;;;;;;;12.75;6.88;;;;;;;;;;6217505;23;20007;-77
2022/11/25 09:22:00;;;;;;;15.15;7.50;;;;;;;;;;6218178;23;20432;-77
2022/11/25 09:24:32;;;;;;;14.48;7.88;;;;;;;;;;6245635;23;20003;-77
2022/11/25 09:27:01;;;;;;;13.73;7.55;;;;;;;;;;6218076;23;20333;-82
2022/11/25 09:29:29;;;;;;;13.27;7.88;;;;;;;;;;6218239;23;20000;-76
2022/11/25 09:31:57;;;;;;;16.00;8.57;;;;;;;;;;6218241;23;20008;-77
2022/11/25 09:34:23;;;;;;;17.30;10.10;;;;;;;;;;6245495;23;20313;-76
2022/11/25 09:36:51;;;;;;;17.92;9.52;;;;;;;;;;6217708;23;20000;-77
2022/11/25 09:39:28;;;;;;;17.45;9.93;;;;;;;;;;6217893;23;20379;-76
2022/11/25 09:47:36;;;;;;;16.00;9.63;;;;;;;;;;6244386;23;20083;-75
2022/11/25 09:50:37;;;;;;;16.73;10.32;;;;;;;;;;6217931;23;20011;-77
2022/11/25 09:53:30;;;;;;;17.55;10.57;;;;;;;;;;6071174;23;20012;-78
2022/11/25 09:56:10;;;;;;;16.80;9.40;;;;;;;;;;6217827;23;20004;-77
2022/11/25 09:59:09;;;;;;;15.50;9.35;;;;;;;;;;6217554;23;20015;-77
2022/11/25 10:01:41;;;;;;;14.57;9.27;;;;;;;;;;6243799;23;20073;-76
2022/11/25 10:04:26;;;;;;;;;;;;;;;;;;;;;
2022/11/25 10:06:59;;;;;;;14.38;10.07;;;;;;;;;;6244703;23;20083;-77
2022/11/25 10:09:30;;;;;;;16.20;10.70;;;;;;;;;;6245352;23;19996;-77
2022/11/25 10:12:27;;;;;;;;;;;;;;;;;;;;;
2022/11/25 10:14:59;;;;;;;16.00;10.13;;;;;;;;;;6244911;23;20511;-76
2022/11/25 10:17:38;;;;;;;;;;;;;;;;;;6218231;23;20034;-76
2022/11/25 10:20:40;;;;;;;16.50;9.60;;;;;;;;;;6243955;23;20431;-80
2022/11/25 10:23:17;;;;;;;14.48;8.90;;;;;;;;;;6244977;23;20379;-77
2022/11/25 10:26:13;;;;;;;;;;;;;;;;;;;;;
2022/11/25 10:30:07;;;;;;;;;;;;;;;;;;;;;
2022/11/25 10:32:30;;;;;;;15.20;9.68;;;;;;;;;;6083757;23;20105;-77
2022/11/25 10:38:37;;;;;;;;;;;;;;;;;;;;;
2022/11/25 10:51:23;;;;;;;;;;;;;;;;;;;;;
2022/11/25 10:54:22;;;;;;;20.70;10.52;;;;;;;;;;5939717;23;20094;-77
2022/11/25 11:06:50;;;;;;;15.65;9.93;;;;;;;;;;5978694;24;20024;-77
2022/11/25 11:09:48;;;;;;;;;;;;;;;;;;;;;
2022/11/25 11:12:39;;;;;;;;;;;;;;;;;;;;;
2022/11/25 11:15:32;;;;;;;19.95;9.88;;;;;;;;;;6170475;23;20075;-77
2022/11/25 11:18:16;;;;;;;15.52;9.07;;;;;;;;;;6153154;23;20028;-77
2022/11/25 11:20:52;;;;;;;16.23;9.32;;;;;;;;;;6187670;23;20004;-76
2022/11/25 11:23:39;;;;;;;17.08;9.90;;;;;;;;;;6205151;23;20035;-78
2022/11/25 11:26:29;;;;;;;18.58;9.50;;;;;;;;;;6198655;23;20349;-76
2022/11/25 11:29:02;;;;;;;14.63;8.70;;;;;;;;;;6220479;23;20092;-76
2022/11/25 11:31:55;;;;;;;19.27;8.82;;;;;;;;;;6194255;23;20003;-77
2022/11/25 11:34:39;;;;;;;14.93;9.20;;;;;;;;;;6220259;23;20428;-78
2022/11/25 11:37:37;;;;;;;;;;;;;;;;;;;;;
2022/11/25 11:40:49;;;;;;;;;;;;;;;;;;;;;
2022/11/25 11:46:41;;;;;;;13.73;8.70;;;;;;;;;;6162674;23;19914;-77
2022/11/25 11:49:39;;;;;;;16.20;9.05;;;;;;;;;;6242852;23;20012;-77
2022/11/25 11:55:51;;;;;;;17.15;10.68;;;;;;;;;;6243900;23;20014;-77
2022/11/25 11:58:54;;;;;;;18.83;8.98;;;;;;;;;;6187103;23;20006;-76
2022/11/25 12:01:35;;;;;;;18.67;9.15;;;;;;;;;;6215077;23;20416;-76
2022/11/25 12:04:15;;;;;;;20.40;10.60;;;;;;;;;;6214035;23;20000;-76
2022/11/25 12:07:21;;;;;;;15.43;10.00;;;;;;;;;;6210579;23;20000;-76
2022/11/25 12:10:03;;;;;;;15.30;9.50;;;;;;;;;;6212908;23;20012;-77
2022/11/25 12:12:48;;;;;;;16.30;9.98;;;;;;;;;;6212763;23;20001;-76
2022/11/25 12:15:39;;;;;;;17.15;9.68;;;;;;;;;;6214736;23;20005;-76
2022/11/25 12:18:31;;;;;;;15.05;9.50;;;;;;;;;;6216316;23;20027;-76
2022/11/25 12:21:04;;;;;;;14.05;9.00;;;;;;;;;;6215035;23;20087;-77
2022/11/25 12:23:39;;;;;;;18.60;9.18;;;;;;;;;;6212425;23;20020;-77
2022/11/25 12:32:14;;;;;;;15.40;9.35;;;;;;;;;;6163662;23;20013;-77
2022/11/25 12:34:58;;;;;;;16.48;9.25;;;;;;;;;;6080363;23;20041;-77
2022/11/25 12:37:32;;;;;;;20.52;10.25;;;;;;;;;;6172854;23;20013;-77
2022/11/25 12:40:18;;;;;;;15.65;9.85;;;;;;;;;;6153088;23;1118005;-79
2022/11/25 12:42:45;;;;;;;18.23;9.35;;;;;;;;;;6217903;23;20361;-77
2022/11/25 12:45:20;;;;;;;16.45;7.60;;;;;;;;;;6224799;23;20031;-77
2022/11/25 12:47:46;;;;;;;13.75;7.70;;;;;;;;;;6222606;23;20004;-76
2022/11/25 12:50:24;;;;;;;17.20;7.70;;;;;;;;;;6224163;23;20362;-76
2022/11/25 12:53:05;;;;;;;16.42;7.88;;;;;;;;;;6215966;23;20393;-75
2022/11/25 12:55:32;;;;;;;15.27;8.10;;;;;;;;;;6216053;23;20004;-77
2022/11/25 12:58:10;;;;;;;15.55;8.57;;;;;;;;;;6214989;23;20011;-78
2022/11/25 13:00:39;;;;;;;13.02;8.63;;;;;;;;;;6214002;23;20005;-78
2022/11/25 13:03:11;;;;;;;12.40;7.72;;;;;;;;;;6189431;23;20056;-76
2022/11/25 13:05:49;;;;;;;14.02;8.10;;;;;;;;;;6216234;23;20479;-77
2022/11/25 13:08:30;;;;;;;14.85;8.00;;;;;;;;;;6187298;23;20012;-77
2022/11/25 13:11:14;;;;;;;18.23;10.07;;;;;;;;;;6215924;23;19997;-76
2022/11/25 13:13:46;;;;;;;15.40;9.25;;;;;;;;;;6215080;23;20001;-77
2022/11/25 13:16:13;;;;;;;16.83;9.13;;;;;;;;;;6188618;23;20004;-77
2022/11/25 13:18:41;;;;;;;13.82;8.43;;;;;;;;;;6214976;23;20007;-75
2022/11/25 13:21:08;;;;;;;18.15;8.98;;;;;;;;;;6216157;23;20005;-75
2022/11/25 13:23:46;;;;;;;16.20;9.05;;;;;;;;;;6189271;23;20091;-76
2022/11/25 13:26:32;;;;;;;17.88;9.00;;;;;;;;;;6188797;23;20012;-77
2022/11/25 13:28:59;;;;;;;13.48;9.20;;;;;;;;;;6188329;23;20015;-77
2022/11/25 13:31:30;;;;;;;16.23;10.27;;;;;;;;;;6216366;23;20071;-77
2022/11/25 13:33:56;;;;;;;;;;;;;;;;;;6189888;23;20491;-77
2022/11/25 13:36:25;;;;;;;16.48;10.32;;;;;;;;;;6215540;23;19907;-78
2022/11/25 13:38:51;;;;;;;12.63;9.20;;;;;;;;;;6217430;23;20012;-77
2022/11/25 13:41:20;;;;;;;18.40;10.35;;;;;;;;;;6218061;23;20116;-77
2022/11/25 13:43:53;;;;;;;17.75;10.50;;;;;;;;;;6217462;23;20463;-78
2022/11/25 13:46:31;;;;;;;21.38;11.30;;;;;;;;;;6218475;23;20009;-77
2022/11/25 13:48:58;;;;;;;17.75;11.27;;;;;;;;;;6217038;23;20004;-77
2022/11/25 13:51:25;;;;;;;17.83;11.27;;;;;;;;;;6219396;23;20092;-77
2022/11/25 13:53:56;;;;;;;22.77;11.43;;;;;;;;;;6219715;23;19997;-78
2022/11/25 13:56:22;;;;;;;18.83;12.05;;;;;;;;;;6219669;23;20001;-76
2022/11/25 13:59:06;;;;;;;17.42;11.23;;;;;;;;;;6218069;23;20008;-76
2022/11/25 14:01:32;;;;;;;20.77;12.45;;;;;;;;;;6216434;23;20495;-76
2022/11/25 14:03:59;;;;;;;21.70;11.60;;;;;;;;;;6188836;23;20004;-75
2022/11/25 14:06:32;;;;;;;20.20;12.50;;;;;;;;;;6215643;23;20005;-75
2022/11/25 14:09:16;;;;;;;19.77;12.65;;;;;;;;;;6216223;23;19997;-76
2022/11/25 14:11:45;;;;;;;23.45;12.52;;;;;;;;;;6217111;23;20024;-77
2022/11/25 14:14:20;;;;;;;23.73;13.20;;;;;;;;;;6226318;23;19996;-76
2022/11/25 14:17:05;;;;;;;17.35;11.13;;;;;;;;;;6232315;23;20012;-76
2022/11/25 14:19:55;;;;;;;19.92;11.93;;;;;;;;;;6229209;23;20070;-76
2022/11/25 14:22:30;;;;;;;18.67;11.55;;;;;;;;;;6228069;23;20375;-77
2022/11/25 14:25:11;;;;;;;22.80;13.63;;;;;;;;;;6220787;23;20025;-76
2022/11/25 14:27:37;;;;;;;27.98;12.95;;;;;;;;;;6214621;23;20429;-73
2022/11/25 14:30:05;;;;;;;24.45;13.48;;;;;;;;;;6214187;23;19996;-76
2022/11/25 14:32:42;;;;;;;24.33;13.25;;;;;;;;;;6214405;23;20011;-76
2022/11/25 14:35:10;;;;;;;23.58;12.90;;;;;;;;;;6213416;23;20059;-77
2022/11/25 14:37:59;;;;;;;25.10;12.80;;;;;;;;;;6213913;23;20345;-78
2022/11/25 14:40:28;;;;;;;22.38;12.60;;;;;;;;;;6214014;23;20404;-76
2022/11/25 14:42:58;;;;;;;22.42;12.40;;;;;;;;;;6188212;23;20005;-76
2022/11/25 14:45:27;;;;;;;22.30;13.82;;;;;;;;;;6187891;23;20441;-77
2022/11/25 14:47:54;;;;;;;22.95;12.40;;;;;;;;;;6186789;23;20028;-75
2022/11/25 14:50:20;;;;;;;23.73;13.90;;;;;;;;;;6187454;23;20447;-75
2022/11/25 14:52:46;;;;;;;20.55;13.68;;;;;;;;;;6214295;23;20001;-77
2022/11/25 14:55:13;;;;;;;25.20;13.88;;;;;;;;;;6213956;23;19997;-76
2022/11/25 14:57:42;;;;;;;21.75;13.85;;;;;;;;;;6214000;23;20005;-79
2022/11/25 15:00:15;;;;;;;24.58;13.75;;;;;;;;;;6214018;23;20004;-78
2022/11/25 15:02:51;;;;;;;26.45;13.40;;;;;;;;;;6214049;23;20015;-77
2022/11/25 15:05:19;;;;;;;20.60;13.35;;;;;;;;;;6213805;23;20310;-79
2022/11/25 15:08:09;;;;;;;29.55;13.55;;;;;;;;;;6187218;23;20429;-77
2022/11/25 15:10:38;;;;;;;27.77;14.82;;;;;;;;;;6213841;23;20448;-77
2022/11/25 15:13:24;;;;;;;29.45;15.60;;;;;;;;;;6214207;23;20425;-77
2022/11/25 15:15:50;;;;;;;31.33;17.10;;;;;;;;;;6210450;23;20409;-77
2022/11/25 15:18:18;;;;;;;30.60;15.20;;;;;;;;;;6212459;23;20421;-77
2022/11/25 15:20:48;;;;;;;25.63;14.32;;;;;;;;;;6213158;23;20001;-76
2022/11/25 15:23:16;;;;;;;19.27;12.07;;;;;;;;;;6213596;23;20028;-77
2022/11/25 15:25:49;;;;;;;25.60;15.90;;;;;;;;;;6213070;23;20385;-78
2022/11/25 15:28:15;;;;;;;26.42;16.17;;;;;;;;;;6212522;23;20004;-77
2022/11/25 15:30:41;;;;;;;28.08;16.10;;;;;;;;;;6211385;23;20076;-77
2022/11/25 15:33:09;;;;;;;30.42;17.27;;;;;;;;;;6212702;23;20003;-76
2022/11/25 15:35:35;;;;;;;29.00;15.77;;;;;;;;;;6213112;23;19997;-77
2022/11/25 15:38:16;;;;;;;29.17;17.70;;;;;;;;;;6212302;23;20059;-76
2022/11/25 15:40:43;;;;;;;29.33;17.65;;;;;;;;;;6213880;23;20012;-76
2022/11/25 15:43:21;;;;;;;33.17;17.77;;;;;;;;;;6213173;23;20143;-78
2022/11/25 15:45:49;;;;;;;31.88;17.23;;;;;;;;;;6187036;23;20008;-75
2022/11/25 15:48:17;;;;;;;29.10;17.25;;;;;;;;;;6184710;23;20404;-77
2022/11/25 15:50:43;;;;;;;35.80;18.40;;;;;;;;;;6210611;23;20433;-79
2022/11/25 15:53:19;;;;;;;30.15;17.10;;;;;;;;;;6211178;23;20080;-78
2022/11/25 15:55:45;;;;;;;32.13;18.25;;;;;;;;;;6210848;23;20005;-77
2022/11/25 15:58:16;;;;;;;30.02;17.95;;;;;;;;;;6211134;23;20463;-77
2022/11/25 16:00:58;;;;;;;38.00;18.98;;;;;;;;;;6215585;23;20004;-78
2022/11/25 16:03:24;;;;;;;40.50;19.67;;;;;;;;;;6213111;23;20027;-78
2022/11/25 16:05:54;;;;;;;33.30;18.42;;;;;;;;;;6215142;23;20054;-77
2022/11/25 16:08:30;;;;;;;35.17;19.42;;;;;;;;;;6188550;23;20004;-76
2022/11/25 16:11:09;;;;;;;27.70;17.30;;;;;;;;;;6216140;23;20036;-77
2022/11/25 16:13:36;;;;;;;31.35;18.25;;;;;;;;;;6215704;23;20062;-76
2022/11/25 16:16:08;;;;;;;36.20;19.00;;;;;;;;;;6189671;23;20000;-74
2022/11/25 16:18:39;;;;;;;34.97;19.05;;;;;;;;;;6215622;23;20316;-75
2022/11/25 16:21:08;;;;;;;33.97;19.98;;;;;;;;;;6216015;23;20001;-76